Summary for RAINWISE1

Rainwise Factory, Bar Harbor, ME 04609
Join the PWSweather.com Network
View data in metric units
Latest Conditions
Updated 5:55:00 PM EDT Tuesday, Mar 31, 2015
Data Currently Today's Max Today's Min Today's Average
Temperature 41.2°F5.1°C 45.3°F7.4°C 29.2°F-1.6°C 37.2°F2.9°C
Dew Point 20.3°F-6.5°C 32.9°F0.5°C 20.3°F-6.5°C 27.7°F-2.4°C
Winds 6.7 mph N10.8 kmh N 10.4 mph NW16.7 kmh NW CalmCalm 4.4 mph7.1 kmh
Wind Gusts 12.0 mph19.3 kmh 18.6 mph29.9 kmh -- 8.3 mph13.4 kmh
Humidity 42% 99% 39% 74%
Pressure 29.66 in1004.4 mb 29.66 in1004.4 mb 29.54 in1000.3 mb 29.60 in1002.4 mb
Precipitation 0.01 in0.3 mm - - 0.00 in0.0 mm
Trends
 
Station Profile
Rainwise FactoryBar Harbor, ME 04609

Lat: 44.39, Lon: -68.208
Elevation: 29
Station Type: Rainwise MK-III

Detailed Summary for Tue, Mar 31, 2015
Hour (EDT) Temperature Dew Point Humidity Winds Wind Gusts Pressure Precip Precip Rate Daily Precip Total
05:55 PM 41.2°F5.1°C 20.3°F-6.5°C 42% 6.7 mph N10.8 kmh N 12.0 mph19.3 kmh 29.66 in1004.4 mb 0.00 in0.0 mm 0.00 in0.0 mm 0.01 in0.3 mm
05:50 PM 41.2°F5.1°C 20.3°F-6.5°C 42% 7.0 mph N11.3 kmh N 12.8 mph20.6 kmh 29.66 in1004.4 mb 0.00 in0.0 mm 0.00 in0.0 mm 0.01 in0.3 mm
05:45 PM 41.2°F5.1°C 20.3°F-6.5°C 42% 7.9 mph N12.7 kmh N 11.9 mph19.2 kmh 29.66 in1004.4 mb 0.00 in0.0 mm 0.00 in0.0 mm 0.01 in0.3 mm
05:40 PM 41.2°F5.1°C 20.3°F-6.5°C 42% 8.5 mph N13.7 kmh N 16.3 mph26.2 kmh 29.66 in1004.4 mb 0.00 in0.0 mm 0.00 in0.0 mm 0.01 in0.3 mm
05:35 PM 41.2°F5.1°C 20.7°F-6.3°C 43% 6.3 mph NW10.1 kmh NW 9.5 mph15.3 kmh 29.65 in1004.1 mb 0.00 in0.0 mm 0.00 in0.0 mm 0.01 in0.3 mm
05:30 PM 41.3°F5.2°C 20.8°F-6.2°C 43% 5.8 mph NNW9.3 kmh NNW 10.5 mph16.9 kmh 29.65 in1004.1 mb 0.00 in0.0 mm 0.00 in0.0 mm 0.01 in0.3 mm
05:25 PM 41.6°F5.3°C 20.7°F-6.3°C 42% 6.8 mph NW10.9 kmh NW 11.0 mph17.7 kmh 29.65 in1004.1 mb 0.00 in0.0 mm 0.00 in0.0 mm 0.01 in0.3 mm
05:20 PM 42.0°F5.6°C 21.1°F-6.1°C 42% 7.5 mph NNW12.1 kmh NNW 14.5 mph23.3 kmh 29.65 in1004.1 mb 0.00 in0.0 mm 0.00 in0.0 mm 0.01 in0.3 mm
05:15 PM 42.3°F5.7°C 21.4°F-5.9°C 42% 7.5 mph NNW12.1 kmh NNW 13.3 mph21.4 kmh 29.65 in1004.1 mb 0.00 in0.0 mm 0.00 in0.0 mm 0.01 in0.3 mm
05:10 PM 42.3°F5.7°C 21.4°F-5.9°C 42% 6.6 mph NNW10.6 kmh NNW 11.6 mph18.7 kmh 29.64 in1003.7 mb 0.00 in0.0 mm 0.00 in0.0 mm 0.01 in0.3 mm
05:05 PM 42.2°F5.7°C 21.3°F-5.9°C 42% 7.4 mph NNW11.9 kmh NNW 11.9 mph19.2 kmh 29.64 in1003.7 mb 0.00 in0.0 mm 0.00 in0.0 mm 0.01 in0.3 mm
05:00 PM 42.2°F5.7°C 21.3°F-5.9°C 42% 6.6 mph NNW10.6 kmh NNW 11.0 mph17.7 kmh 29.64 in1003.7 mb 0.00 in0.0 mm 0.00 in0.0 mm 0.01 in0.3 mm
04:55 PM 42.3°F5.7°C 21.4°F-5.9°C 42% 8.0 mph NNW12.9 kmh NNW 12.8 mph20.6 kmh 29.64 in1003.7 mb 0.00 in0.0 mm 0.00 in0.0 mm 0.01 in0.3 mm
04:50 PM 42.5°F5.8°C 21.6°F-5.8°C 42% 6.9 mph NNW11.1 kmh NNW 12.8 mph20.6 kmh 29.64 in1003.7 mb 0.00 in0.0 mm 0.00 in0.0 mm 0.01 in0.3 mm
04:45 PM 42.6°F5.9°C 21.4°F-5.9°C 41% 6.5 mph NNW10.5 kmh NNW 13.5 mph21.7 kmh 29.64 in1003.7 mb 0.00 in0.0 mm 0.00 in0.0 mm 0.01 in0.3 mm
04:40 PM 42.7°F5.9°C 21.4°F-5.9°C 41% 5.3 mph NW8.5 kmh NW 9.5 mph15.3 kmh 29.63 in1003.4 mb 0.00 in0.0 mm 0.00 in0.0 mm 0.01 in0.3 mm
04:35 PM 42.7°F5.9°C 21.5°F-5.8°C 41% 5.9 mph NW9.5 kmh NW 11.6 mph18.7 kmh 29.63 in1003.4 mb 0.00 in0.0 mm 0.00 in0.0 mm 0.01 in0.3 mm
04:30 PM 42.7°F5.9°C 21.1°F-6.1°C 40% 4.6 mph WNW7.4 kmh WNW 8.1 mph13.0 kmh 29.63 in1003.4 mb 0.00 in0.0 mm 0.00 in0.0 mm 0.01 in0.3 mm
04:25 PM 42.7°F5.9°C 21.1°F-6.1°C 40% 5.3 mph NW8.5 kmh NW 11.6 mph18.7 kmh 29.63 in1003.4 mb 0.00 in0.0 mm 0.00 in0.0 mm 0.01 in0.3 mm
04:20 PM 42.7°F5.9°C 21.5°F-5.8°C 41% 6.9 mph NNW11.1 kmh NNW 12.5 mph20.1 kmh 29.63 in1003.4 mb 0.00 in0.0 mm 0.00 in0.0 mm 0.01 in0.3 mm
04:15 PM 43.0°F6.1°C 21.8°F-5.7°C 41% 4.2 mph NW6.8 kmh NW 9.3 mph15.0 kmh 29.63 in1003.4 mb 0.00 in0.0 mm 0.00 in0.0 mm 0.01 in0.3 mm
04:10 PM 43.6°F6.4°C 22.0°F-5.6°C 40% 4.7 mph WNW7.6 kmh WNW 7.7 mph12.4 kmh 29.63 in1003.4 mb 0.00 in0.0 mm 0.00 in0.0 mm 0.01 in0.3 mm
04:05 PM 44.1°F6.7°C 22.5°F-5.3°C 40% 6.7 mph NW10.8 kmh NW 14.0 mph22.5 kmh 29.63 in1003.4 mb 0.00 in0.0 mm 0.00 in0.0 mm 0.01 in0.3 mm
04:00 PM 43.8°F6.6°C 22.2°F-5.4°C 40% 8.6 mph NNW13.8 kmh NNW 16.1 mph25.9 kmh 29.63 in1003.4 mb 0.00 in0.0 mm 0.00 in0.0 mm 0.01 in0.3 mm
03:55 PM 43.6°F6.4°C 22.4°F-5.3°C 41% 8.9 mph NNW14.3 kmh NNW 14.5 mph23.3 kmh 29.63 in1003.4 mb 0.00 in0.0 mm 0.00 in0.0 mm 0.01 in0.3 mm
03:50 PM 43.7°F6.5°C 22.4°F-5.3°C 41% 4.9 mph NNW7.9 kmh NNW 10.3 mph16.6 kmh 29.63 in1003.4 mb 0.00 in0.0 mm 0.00 in0.0 mm 0.01 in0.3 mm
03:45 PM 43.9°F6.6°C 22.6°F-5.2°C 41% 3.5 mph WNW5.6 kmh WNW 6.5 mph10.5 kmh 29.63 in1003.4 mb 0.00 in0.0 mm 0.00 in0.0 mm 0.01 in0.3 mm
03:40 PM 44.1°F6.7°C 22.5°F-5.3°C 40% 7.3 mph NW11.7 kmh NW 14.1 mph22.7 kmh 29.63 in1003.4 mb 0.00 in0.0 mm 0.00 in0.0 mm 0.01 in0.3 mm
03:35 PM 44.3°F6.8°C 22.7°F-5.2°C 40% 7.2 mph N11.6 kmh N 11.6 mph18.7 kmh 29.63 in1003.4 mb 0.00 in0.0 mm 0.00 in0.0 mm 0.01 in0.3 mm
03:30 PM 44.5°F6.9°C 22.9°F-5.1°C 40% 8.9 mph NNW14.3 kmh NNW 15.4 mph24.8 kmh 29.63 in1003.4 mb 0.00 in0.0 mm 0.00 in0.0 mm 0.01 in0.3 mm
03:25 PM 44.5°F6.9°C 22.9°F-5.1°C 40% 6.6 mph W10.6 kmh W 13.5 mph21.7 kmh 29.63 in1003.4 mb 0.00 in0.0 mm 0.00 in0.0 mm 0.01 in0.3 mm
03:20 PM 44.8°F7.1°C 23.2°F-4.9°C 40% 8.0 mph NW12.9 kmh NW 13.8 mph22.2 kmh 29.63 in1003.4 mb 0.00 in0.0 mm 0.00 in0.0 mm 0.01 in0.3 mm
03:15 PM 45.0°F7.2°C 23.0°F-5.0°C 39% 6.3 mph NW10.1 kmh NW 14.6 mph23.5 kmh 29.63 in1003.4 mb 0.00 in0.0 mm 0.00 in0.0 mm 0.01 in0.3 mm
03:10 PM 44.8°F7.1°C 23.2°F-4.9°C 40% 6.1 mph NW9.8 kmh NW 10.0 mph16.1 kmh 29.63 in1003.4 mb 0.00 in0.0 mm 0.00 in0.0 mm 0.01 in0.3 mm
03:05 PM 44.6°F7.0°C 23.0°F-5.0°C 40% 7.9 mph N12.7 kmh N 15.1 mph24.3 kmh 29.63 in1003.4 mb 0.00 in0.0 mm 0.00 in0.0 mm 0.01 in0.3 mm
03:00 PM 44.7°F7.1°C 23.1°F-4.9°C 40% 7.7 mph NNW12.4 kmh NNW 13.0 mph20.9 kmh 29.63 in1003.4 mb 0.00 in0.0 mm 0.00 in0.0 mm 0.01 in0.3 mm
02:55 PM 45.2°F7.3°C 23.6°F-4.7°C 40% 9.8 mph NW15.8 kmh NW 15.4 mph24.8 kmh 29.63 in1003.4 mb 0.00 in0.0 mm 0.00 in0.0 mm 0.01 in0.3 mm
02:50 PM 45.0°F7.2°C 23.4°F-4.8°C 40% 8.5 mph NNW13.7 kmh NNW 15.1 mph24.3 kmh 29.63 in1003.4 mb 0.00 in0.0 mm 0.00 in0.0 mm 0.01 in0.3 mm
02:45 PM 44.7°F7.1°C 23.1°F-4.9°C 40% 7.2 mph NW11.6 kmh NW 12.5 mph20.1 kmh 29.63 in1003.4 mb 0.00 in0.0 mm 0.00 in0.0 mm 0.01 in0.3 mm
02:40 PM 45.1°F7.3°C 23.5°F-4.7°C 40% 6.5 mph N10.5 kmh N 12.0 mph19.3 kmh 29.63 in1003.4 mb 0.00 in0.0 mm 0.00 in0.0 mm 0.01 in0.3 mm
02:35 PM 45.2°F7.3°C 23.6°F-4.7°C 40% 7.6 mph NW12.2 kmh NW 15.9 mph25.6 kmh 29.63 in1003.4 mb 0.00 in0.0 mm 0.00 in0.0 mm 0.01 in0.3 mm
02:30 PM 45.2°F7.3°C 23.6°F-4.7°C 40% 8.8 mph NNW14.2 kmh NNW 15.1 mph24.3 kmh 29.63 in1003.4 mb 0.00 in0.0 mm 0.00 in0.0 mm 0.01 in0.3 mm
02:25 PM 45.1°F7.3°C 23.9°F-4.5°C 41% 6.5 mph NNW10.5 kmh NNW 12.8 mph20.6 kmh 29.63 in1003.4 mb 0.00 in0.0 mm 0.00 in0.0 mm 0.01 in0.3 mm
02:20 PM 44.8°F7.1°C 23.9°F-4.5°C 42% 5.7 mph WNW9.2 kmh WNW 9.5 mph15.3 kmh 29.63 in1003.4 mb 0.00 in0.0 mm 0.00 in0.0 mm 0.01 in0.3 mm
02:15 PM 45.1°F7.3°C 23.8°F-4.6°C 41% 8.7 mph NNW14.0 kmh NNW 14.6 mph23.5 kmh 29.63 in1003.4 mb 0.00 in0.0 mm 0.00 in0.0 mm 0.01 in0.3 mm
02:10 PM 45.3°F7.4°C 24.4°F-4.2°C 42% 8.7 mph NW14.0 kmh NW 13.8 mph22.2 kmh 29.63 in1003.4 mb 0.00 in0.0 mm 0.00 in0.0 mm 0.01 in0.3 mm
02:05 PM 45.1°F7.3°C 24.6°F-4.1°C 43% 8.0 mph NNW12.9 kmh NNW 14.0 mph22.5 kmh 29.63 in1003.4 mb 0.00 in0.0 mm 0.00 in0.0 mm 0.01 in0.3 mm
02:00 PM 44.8°F7.1°C 24.2°F-4.3°C 43% 6.8 mph WNW10.9 kmh WNW 13.3 mph21.4 kmh 29.63 in1003.4 mb 0.00 in0.0 mm 0.00 in0.0 mm 0.01 in0.3 mm
01:55 PM 44.3°F6.8°C 24.1°F-4.4°C 44% 4.7 mph NNW7.6 kmh NNW 9.0 mph14.5 kmh 29.63 in1003.4 mb 0.00 in0.0 mm 0.00 in0.0 mm 0.01 in0.3 mm
01:50 PM 43.9°F6.6°C 23.7°F-4.6°C 44% 5.9 mph N9.5 kmh N 15.5 mph24.9 kmh 29.63 in1003.4 mb 0.00 in0.0 mm 0.00 in0.0 mm 0.01 in0.3 mm
01:45 PM 44.0°F6.7°C 23.8°F-4.6°C 44% 6.5 mph N10.5 kmh N 14.1 mph22.7 kmh 29.63 in1003.4 mb 0.00 in0.0 mm 0.00 in0.0 mm 0.01 in0.3 mm
01:40 PM 43.9°F6.6°C 23.8°F-4.6°C 44% 7.5 mph NW12.1 kmh NW 13.0 mph20.9 kmh 29.63 in1003.4 mb 0.00 in0.0 mm 0.00 in0.0 mm 0.01 in0.3 mm
01:35 PM 43.4°F6.3°C 23.6°F-4.7°C 45% 6.6 mph NW10.6 kmh NW 12.0 mph19.3 kmh 29.63 in1003.4 mb 0.00 in0.0 mm 0.00 in0.0 mm 0.01 in0.3 mm
01:30 PM 43.2°F6.2°C 23.4°F-4.8°C 45% 6.9 mph N11.1 kmh N 11.1 mph17.9 kmh 29.63 in1003.4 mb 0.00 in0.0 mm 0.00 in0.0 mm 0.01 in0.3 mm
01:25 PM 43.2°F6.2°C 23.4°F-4.8°C 45% 9.0 mph N14.5 kmh N 16.8 mph27.0 kmh 29.63 in1003.4 mb 0.00 in0.0 mm 0.00 in0.0 mm 0.01 in0.3 mm
01:20 PM 43.0°F6.1°C 23.6°F-4.7°C 46% 8.9 mph NW14.3 kmh NW 14.6 mph23.5 kmh 29.63 in1003.4 mb 0.00 in0.0 mm 0.00 in0.0 mm 0.01 in0.3 mm
01:15 PM 42.9°F6.1°C 23.4°F-4.8°C 46% 8.9 mph N14.3 kmh N 14.1 mph22.7 kmh 29.63 in1003.4 mb 0.00 in0.0 mm 0.00 in0.0 mm 0.01 in0.3 mm
01:10 PM 43.1°F6.2°C 24.0°F-4.4°C 47% 8.5 mph NW13.7 kmh NW 14.5 mph23.3 kmh 29.63 in1003.4 mb 0.00 in0.0 mm 0.00 in0.0 mm 0.01 in0.3 mm
01:05 PM 43.0°F6.1°C 23.9°F-4.5°C 47% 10.0 mph NNW16.1 kmh NNW 18.3 mph29.5 kmh 29.63 in1003.4 mb 0.00 in0.0 mm 0.00 in0.0 mm 0.01 in0.3 mm
01:00 PM 43.0°F6.1°C 24.3°F-4.3°C 48% 10.1 mph NW16.3 kmh NW 17.0 mph27.4 kmh 29.63 in1003.4 mb 0.00 in0.0 mm 0.00 in0.0 mm 0.01 in0.3 mm
12:55 PM 42.8°F6.0°C 24.1°F-4.4°C 48% 8.4 mph N13.5 kmh N 16.6 mph26.7 kmh 29.63 in1003.4 mb 0.00 in0.0 mm 0.00 in0.0 mm 0.01 in0.3 mm
12:50 PM 42.6°F5.9°C 23.9°F-4.5°C 48% 7.1 mph NW11.4 kmh NW 12.0 mph19.3 kmh 29.63 in1003.4 mb 0.00 in0.0 mm 0.00 in0.0 mm 0.01 in0.3 mm
12:45 PM 42.6°F5.9°C 24.2°F-4.3°C 49% 7.4 mph WNW11.9 kmh WNW 11.9 mph19.2 kmh 29.63 in1003.4 mb 0.00 in0.0 mm 0.00 in0.0 mm 0.01 in0.3 mm
12:40 PM 42.6°F5.9°C 24.2°F-4.3°C 49% 9.9 mph NNW15.9 kmh NNW 18.0 mph29.0 kmh 29.63 in1003.4 mb 0.00 in0.0 mm 0.00 in0.0 mm 0.01 in0.3 mm
12:35 PM 42.7°F5.9°C 24.7°F-4.1°C 50% 5.3 mph NW8.5 kmh NW 8.4 mph13.5 kmh 29.63 in1003.4 mb 0.00 in0.0 mm 0.00 in0.0 mm 0.01 in0.3 mm
12:30 PM 42.4°F5.8°C 24.7°F-4.1°C 51% 8.6 mph NNW13.8 kmh NNW 16.1 mph25.9 kmh 29.63 in1003.4 mb 0.00 in0.0 mm 0.00 in0.0 mm 0.01 in0.3 mm
12:25 PM 41.8°F5.4°C 24.5°F-4.2°C 52% 5.8 mph NNW9.3 kmh NNW 10.3 mph16.6 kmh 29.63 in1003.4 mb 0.00 in0.0 mm 0.00 in0.0 mm 0.01 in0.3 mm
12:20 PM 41.4°F5.2°C 24.1°F-4.4°C 52% 5.9 mph NW9.5 kmh NW 12.5 mph20.1 kmh 29.63 in1003.4 mb 0.00 in0.0 mm 0.00 in0.0 mm 0.01 in0.3 mm
12:15 PM 41.5°F5.3°C 24.2°F-4.3°C 52% 8.8 mph NW14.2 kmh NW 15.4 mph24.8 kmh 29.63 in1003.4 mb 0.00 in0.0 mm 0.00 in0.0 mm 0.01 in0.3 mm
12:10 PM 41.5°F5.3°C 24.6°F-4.1°C 53% 7.4 mph WNW11.9 kmh WNW 13.0 mph20.9 kmh 29.63 in1003.4 mb 0.00 in0.0 mm 0.00 in0.0 mm 0.01 in0.3 mm
12:05 PM 41.4°F5.2°C 24.5°F-4.2°C 53% 5.8 mph NW9.3 kmh NW 9.5 mph15.3 kmh 29.63 in1003.4 mb 0.00 in0.0 mm 0.00 in0.0 mm 0.01 in0.3 mm
12:00 PM 41.7°F5.4°C 24.8°F-4.0°C 53% 6.8 mph N10.9 kmh N 11.0 mph17.7 kmh 29.63 in1003.4 mb 0.00 in0.0 mm 0.00 in0.0 mm 0.01 in0.3 mm
11:55 AM 42.1°F5.6°C 25.2°F-3.8°C 53% 9.7 mph NNW15.6 kmh NNW 16.8 mph27.0 kmh 29.62 in1003.0 mb 0.00 in0.0 mm 0.00 in0.0 mm 0.01 in0.3 mm
11:50 AM 42.2°F5.7°C 25.2°F-3.8°C 53% 6.3 mph NW10.1 kmh NW 11.9 mph19.2 kmh 29.62 in1003.0 mb 0.00 in0.0 mm 0.00 in0.0 mm 0.01 in0.3 mm
11:45 AM 42.3°F5.7°C 25.8°F-3.4°C 54% 10.0 mph NNW16.1 kmh NNW 16.3 mph26.2 kmh 29.62 in1003.0 mb 0.00 in0.0 mm 0.00 in0.0 mm 0.01 in0.3 mm
11:40 AM 42.3°F5.7°C 26.1°F-3.3°C 55% 9.0 mph N14.5 kmh N 15.5 mph24.9 kmh 29.62 in1003.0 mb 0.00 in0.0 mm 0.00 in0.0 mm 0.01 in0.3 mm
11:35 AM 41.7°F5.4°C 25.9°F-3.4°C 56% 9.5 mph NNW15.3 kmh NNW 14.0 mph22.5 kmh 29.62 in1003.0 mb 0.00 in0.0 mm 0.00 in0.0 mm 0.01 in0.3 mm
11:30 AM 41.4°F5.2°C 25.9°F-3.4°C 57% 9.7 mph NNW15.6 kmh NNW 14.9 mph24.0 kmh 29.62 in1003.0 mb 0.00 in0.0 mm 0.00 in0.0 mm 0.01 in0.3 mm
11:25 AM 41.1°F5.1°C 26.0°F-3.3°C 58% 7.3 mph NNW11.7 kmh NNW 16.6 mph26.7 kmh 29.62 in1003.0 mb 0.00 in0.0 mm 0.00 in0.0 mm 0.01 in0.3 mm
11:20 AM 40.9°F4.9°C 26.1°F-3.3°C 59% 8.7 mph NNW14.0 kmh NNW 14.5 mph23.3 kmh 29.63 in1003.4 mb 0.00 in0.0 mm 0.00 in0.0 mm 0.01 in0.3 mm
11:15 AM 41.1°F5.1°C 26.3°F-3.2°C 59% 10.0 mph NW16.1 kmh NW 18.6 mph29.9 kmh 29.63 in1003.4 mb 0.00 in0.0 mm 0.00 in0.0 mm 0.01 in0.3 mm
11:10 AM 41.1°F5.1°C 26.7°F-2.9°C 60% 9.4 mph NW15.1 kmh NW 15.1 mph24.3 kmh 29.63 in1003.4 mb 0.00 in0.0 mm 0.00 in0.0 mm 0.01 in0.3 mm
11:05 AM 41.0°F5.0°C 27.0°F-2.8°C 61% 8.4 mph N13.5 kmh N 15.1 mph24.3 kmh 29.63 in1003.4 mb 0.00 in0.0 mm 0.00 in0.0 mm 0.01 in0.3 mm
11:00 AM 41.3°F5.2°C 27.2°F-2.7°C 61% 9.2 mph NNW14.8 kmh NNW 15.5 mph24.9 kmh 29.62 in1003.0 mb 0.00 in0.0 mm 0.00 in0.0 mm 0.01 in0.3 mm
10:55 AM 41.2°F5.1°C 27.5°F-2.5°C 62% 7.3 mph NNW11.7 kmh NNW 14.0 mph22.5 kmh 29.62 in1003.0 mb 0.00 in0.0 mm 0.00 in0.0 mm 0.01 in0.3 mm
10:50 AM 40.7°F4.8°C 27.4°F-2.6°C 63% 7.7 mph N12.4 kmh N 13.8 mph22.2 kmh 29.62 in1003.0 mb 0.00 in0.0 mm 0.00 in0.0 mm 0.01 in0.3 mm
10:45 AM 40.7°F4.8°C 27.7°F-2.4°C 64% 9.3 mph N15.0 kmh N 18.0 mph29.0 kmh 29.62 in1003.0 mb 0.00 in0.0 mm 0.00 in0.0 mm 0.01 in0.3 mm
10:40 AM 40.5°F4.7°C 27.9°F-2.3°C 65% 9.4 mph NW15.1 kmh NW 14.6 mph23.5 kmh 29.63 in1003.4 mb 0.00 in0.0 mm 0.00 in0.0 mm 0.01 in0.3 mm
10:35 AM 39.9°F4.4°C 27.6°F-2.4°C 66% 9.7 mph N15.6 kmh N 16.1 mph25.9 kmh 29.62 in1003.0 mb 0.00 in0.0 mm 0.00 in0.0 mm 0.01 in0.3 mm
10:30 AM 39.5°F4.2°C 27.6°F-2.4°C 67% 8.1 mph NNW13.0 kmh NNW 11.9 mph19.2 kmh 29.62 in1003.0 mb 0.00 in0.0 mm 0.00 in0.0 mm 0.01 in0.3 mm
10:25 AM 39.1°F3.9°C 27.5°F-2.5°C 68% 9.1 mph NW14.6 kmh NW 15.1 mph24.3 kmh 29.62 in1003.0 mb 0.00 in0.0 mm 0.00 in0.0 mm 0.01 in0.3 mm
10:20 AM 39.1°F3.9°C 27.9°F-2.3°C 69% 8.3 mph NNW13.4 kmh NNW 16.8 mph27.0 kmh 29.62 in1003.0 mb 0.00 in0.0 mm 0.00 in0.0 mm 0.01 in0.3 mm
10:15 AM 39.5°F4.2°C 28.7°F-1.8°C 70% 8.1 mph NW13.0 kmh NW 13.0 mph20.9 kmh 29.62 in1003.0 mb 0.00 in0.0 mm 0.00 in0.0 mm 0.01 in0.3 mm
10:10 AM 39.3°F4.1°C 28.5°F-1.9°C 70% 6.3 mph NW10.1 kmh NW 12.4 mph20.0 kmh 29.62 in1003.0 mb 0.00 in0.0 mm 0.00 in0.0 mm 0.01 in0.3 mm
10:05 AM 39.0°F3.9°C 28.9°F-1.7°C 72% 8.7 mph NNW14.0 kmh NNW 14.5 mph23.3 kmh 29.63 in1003.4 mb 0.00 in0.0 mm 0.00 in0.0 mm 0.01 in0.3 mm
10:00 AM 39.0°F3.9°C 29.3°F-1.5°C 73% 8.0 mph N12.9 kmh N 12.4 mph20.0 kmh 29.62 in1003.0 mb 0.00 in0.0 mm 0.00 in0.0 mm 0.01 in0.3 mm
09:55 AM 39.2°F4.0°C 29.5°F-1.4°C 73% 7.0 mph NW11.3 kmh NW 11.9 mph19.2 kmh 29.62 in1003.0 mb 0.00 in0.0 mm 0.00 in0.0 mm 0.01 in0.3 mm
09:50 AM 39.3°F4.1°C 29.6°F-1.3°C 73% 7.6 mph N12.2 kmh N 13.3 mph21.4 kmh 29.62 in1003.0 mb 0.00 in0.0 mm 0.00 in0.0 mm 0.01 in0.3 mm
09:45 AM 39.1°F3.9°C 29.8°F-1.2°C 74% 10.4 mph NW16.7 kmh NW 16.1 mph25.9 kmh 29.62 in1003.0 mb 0.00 in0.0 mm 0.00 in0.0 mm 0.01 in0.3 mm
09:40 AM 38.7°F3.7°C 30.0°F-1.1°C 76% 6.3 mph NNW10.1 kmh NNW 13.8 mph22.2 kmh 29.62 in1003.0 mb 0.00 in0.0 mm 0.00 in0.0 mm 0.01 in0.3 mm
09:35 AM 38.6°F3.7°C 30.0°F-1.1°C 76% 7.7 mph NNW12.4 kmh NNW 12.8 mph20.6 kmh 29.62 in1003.0 mb 0.00 in0.0 mm 0.00 in0.0 mm 0.01 in0.3 mm
09:30 AM 38.7°F3.7°C 30.4°F-0.9°C 77% 6.3 mph NNW10.1 kmh NNW 12.4 mph20.0 kmh 29.62 in1003.0 mb 0.00 in0.0 mm 0.00 in0.0 mm 0.01 in0.3 mm
09:25 AM 38.6°F3.7°C 30.6°F-0.8°C 78% 7.8 mph NNW12.6 kmh NNW 16.3 mph26.2 kmh 29.62 in1003.0 mb 0.00 in0.0 mm 0.00 in0.0 mm 0.01 in0.3 mm
09:20 AM 38.4°F3.6°C 30.9°F-0.6°C 79% 5.8 mph NNW9.3 kmh NNW 9.8 mph15.8 kmh 29.62 in1003.0 mb 0.00 in0.0 mm 0.00 in0.0 mm 0.01 in0.3 mm
09:15 AM 38.1°F3.4°C 30.9°F-0.6°C 80% 6.5 mph N10.5 kmh N 10.6 mph17.1 kmh 29.62 in1003.0 mb 0.00 in0.0 mm 0.00 in0.0 mm 0.01 in0.3 mm
09:10 AM 37.8°F3.2°C 30.9°F-0.6°C 81% 5.8 mph N9.3 kmh N 10.3 mph16.6 kmh 29.62 in1003.0 mb 0.00 in0.0 mm 0.00 in0.0 mm 0.01 in0.3 mm
09:05 AM 37.5°F3.1°C 31.3°F-0.4°C 83% 6.3 mph NW10.1 kmh NW 12.0 mph19.3 kmh 29.61 in1002.7 mb 0.00 in0.0 mm 0.00 in0.0 mm 0.01 in0.3 mm
09:00 AM 37.1°F2.8°C 31.3°F-0.4°C 84% 5.8 mph NW9.3 kmh NW 11.4 mph18.3 kmh 29.61 in1002.7 mb 0.00 in0.0 mm 0.00 in0.0 mm 0.01 in0.3 mm
08:55 AM 36.6°F2.6°C 31.5°F-0.3°C 86% 5.2 mph NW8.4 kmh NW 11.0 mph17.7 kmh 29.61 in1002.7 mb 0.00 in0.0 mm 0.00 in0.0 mm 0.01 in0.3 mm
08:50 AM 35.9°F2.2°C 31.2°F-0.4°C 87% 4.4 mph NW7.1 kmh NW 8.5 mph13.7 kmh 29.61 in1002.7 mb 0.00 in0.0 mm 0.00 in0.0 mm 0.01 in0.3 mm
08:45 AM 35.1°F1.7°C 31.1°F-0.5°C 89% 5.0 mph WNW8.0 kmh WNW 8.1 mph13.0 kmh 29.60 in1002.4 mb 0.00 in0.0 mm 0.00 in0.0 mm 0.01 in0.3 mm
08:40 AM 34.7°F1.5°C 30.8°F-0.7°C 89% 4.6 mph WNW7.4 kmh WNW 8.5 mph13.7 kmh 29.60 in1002.4 mb 0.00 in0.0 mm 0.00 in0.0 mm 0.01 in0.3 mm
08:35 AM 34.7°F1.5°C 30.7°F-0.7°C 89% 3.1 mph WNW5.0 kmh WNW 7.0 mph11.3 kmh 29.60 in1002.4 mb 0.00 in0.0 mm 0.00 in0.0 mm 0.01 in0.3 mm
08:30 AM 34.7°F1.5°C 30.7°F-0.7°C 89% 4.8 mph NW7.7 kmh NW 9.3 mph15.0 kmh 29.60 in1002.4 mb 0.00 in0.0 mm 0.00 in0.0 mm 0.01 in0.3 mm
08:25 AM 34.7°F1.5°C 31.1°F-0.5°C 90% 4.6 mph NW7.4 kmh NW 8.9 mph14.3 kmh 29.60 in1002.4 mb 0.00 in0.0 mm 0.00 in0.0 mm 0.00 in0.0 mm
08:20 AM 34.7°F1.5°C 31.1°F-0.5°C 90% 3.7 mph NW6.0 kmh NW 7.2 mph11.6 kmh 29.60 in1002.4 mb 0.00 in0.0 mm 0.00 in0.0 mm 0.00 in0.0 mm
08:15 AM 34.7°F1.5°C 31.1°F-0.5°C 90% 4.0 mph NW6.4 kmh NW 6.5 mph10.5 kmh 29.60 in1002.4 mb 0.00 in0.0 mm 0.00 in0.0 mm 0.00 in0.0 mm
08:10 AM 34.7°F1.5°C 31.1°F-0.5°C 90% 3.5 mph NW5.6 kmh NW 6.5 mph10.5 kmh 29.59 in1002.0 mb 0.00 in0.0 mm 0.00 in0.0 mm 0.00 in0.0 mm
08:05 AM 34.7°F1.5°C 31.5°F-0.3°C 91% 3.2 mph NW5.1 kmh NW 6.5 mph10.5 kmh 29.59 in1002.0 mb 0.00 in0.0 mm 0.00 in0.0 mm 0.00 in0.0 mm
08:00 AM 34.7°F1.5°C 31.5°F-0.3°C 91% 2.6 mph NW4.2 kmh NW 4.9 mph7.9 kmh 29.60 in1002.4 mb 0.00 in0.0 mm 0.00 in0.0 mm 0.00 in0.0 mm
07:55 AM 34.4°F1.3°C 31.1°F-0.5°C 91% 3.0 mph WNW4.8 kmh WNW 5.0 mph8.0 kmh 29.60 in1002.4 mb 0.00 in0.0 mm 0.00 in0.0 mm 0.00 in0.0 mm
07:50 AM 33.9°F1.1°C 31.0°F-0.6°C 92% 3.7 mph WNW6.0 kmh WNW 6.0 mph9.7 kmh 29.59 in1002.0 mb 0.00 in0.0 mm 0.00 in0.0 mm 0.00 in0.0 mm
07:45 AM 33.5°F0.8°C 30.6°F-0.8°C 92% 2.8 mph WNW4.5 kmh WNW 5.0 mph8.0 kmh 29.59 in1002.0 mb 0.00 in0.0 mm 0.00 in0.0 mm 0.00 in0.0 mm
07:40 AM 33.2°F0.7°C 30.6°F-0.8°C 93% 3.1 mph NW5.0 kmh NW 6.5 mph10.5 kmh 29.59 in1002.0 mb 0.00 in0.0 mm 0.00 in0.0 mm 0.00 in0.0 mm
07:35 AM 33.0°F0.6°C 30.5°F-0.8°C 93% 2.8 mph NW4.5 kmh NW 6.7 mph10.8 kmh 29.58 in1001.7 mb 0.00 in0.0 mm 0.00 in0.0 mm 0.00 in0.0 mm
07:30 AM 32.9°F0.5°C 30.4°F-0.9°C 93% 2.6 mph NNW4.2 kmh NNW 4.9 mph7.9 kmh 29.58 in1001.7 mb 0.00 in0.0 mm 0.00 in0.0 mm 0.00 in0.0 mm
07:25 AM 32.7°F0.4°C 30.2°F-1.0°C 93% 3.4 mph NW5.5 kmh NW 7.2 mph11.6 kmh 29.58 in1001.7 mb 0.00 in0.0 mm 0.00 in0.0 mm 0.00 in0.0 mm
07:20 AM 32.7°F0.4°C 30.2°F-1.0°C 93% 2.5 mph NNW4.0 kmh NNW 6.2 mph10.0 kmh 29.58 in1001.7 mb 0.00 in0.0 mm 0.00 in0.0 mm 0.00 in0.0 mm
07:15 AM 32.7°F0.4°C 30.1°F-1.1°C 93% 3.1 mph NW5.0 kmh NW 7.0 mph11.3 kmh 29.58 in1001.7 mb 0.00 in0.0 mm 0.00 in0.0 mm 0.00 in0.0 mm
07:10 AM 32.4°F0.2°C 29.9°F-1.2°C 93% 3.2 mph WNW5.1 kmh WNW 7.0 mph11.3 kmh 29.58 in1001.7 mb 0.00 in0.0 mm 0.00 in0.0 mm 0.00 in0.0 mm
07:05 AM 32.2°F0.1°C 30.1°F-1.1°C 94% 4.4 mph W7.1 kmh W 10.3 mph16.6 kmh 29.57 in1001.4 mb 0.00 in0.0 mm 0.00 in0.0 mm 0.00 in0.0 mm
07:00 AM 32.2°F0.1°C 30.0°F-1.1°C 94% 2.9 mph WNW4.7 kmh WNW 4.9 mph7.9 kmh 29.58 in1001.7 mb 0.00 in0.0 mm 0.00 in0.0 mm 0.00 in0.0 mm
06:55 AM 32.2°F0.1°C 30.0°F-1.1°C 94% 2.9 mph WSW4.7 kmh WSW 5.5 mph8.9 kmh 29.57 in1001.4 mb 0.00 in0.0 mm 0.00 in0.0 mm 0.00 in0.0 mm
06:50 AM 32.2°F0.1°C 30.0°F-1.1°C 94% 2.3 mph NW3.7 kmh NW 4.7 mph7.6 kmh 29.57 in1001.4 mb 0.00 in0.0 mm 0.00 in0.0 mm 0.00 in0.0 mm
06:45 AM 32.1°F0.1°C 30.3°F-0.9°C 95% 2.4 mph WNW3.9 kmh WNW 4.2 mph6.8 kmh 29.57 in1001.4 mb 0.00 in0.0 mm 0.00 in0.0 mm 0.00 in0.0 mm
06:40 AM 32.0°F0.0°C 30.2°F-1.0°C 95% 3.2 mph NW5.1 kmh NW 5.0 mph8.0 kmh 29.57 in1001.4 mb 0.00 in0.0 mm 0.00 in0.0 mm 0.00 in0.0 mm
06:35 AM 32.0°F0.0°C 30.2°F-1.0°C 95% 0.1 mph SW0.2 kmh SW 2.1 mph3.4 kmh 29.57 in1001.4 mb 0.00 in0.0 mm 0.00 in0.0 mm 0.00 in0.0 mm
06:30 AM 32.0°F0.0°C 30.2°F-1.0°C 95% 0.2 mph SW0.3 kmh SW 1.6 mph2.6 kmh 29.57 in1001.4 mb 0.00 in0.0 mm 0.00 in0.0 mm 0.00 in0.0 mm
06:25 AM 31.8°F-0.1°C 30.0°F-1.1°C 95% 0.1 mph SW0.2 kmh SW 1.8 mph2.9 kmh 29.57 in1001.4 mb 0.00 in0.0 mm 0.00 in0.0 mm 0.00 in0.0 mm
06:20 AM 31.8°F-0.1°C 30.0°F-1.1°C 95% 0.1 mph SW0.2 kmh SW 1.6 mph2.6 kmh 29.57 in1001.4 mb 0.00 in0.0 mm 0.00 in0.0 mm 0.00 in0.0 mm
06:15 AM 32.0°F0.0°C 29.8°F-1.2°C 94% 0.4 mph SW0.6 kmh SW 1.8 mph2.9 kmh 29.56 in1001.0 mb 0.00 in0.0 mm 0.00 in0.0 mm 0.00 in0.0 mm
06:10 AM 32.0°F0.0°C 29.8°F-1.2°C 94% 0.3 mph SW0.5 kmh SW 4.4 mph7.1 kmh 29.56 in1001.0 mb 0.00 in0.0 mm 0.00 in0.0 mm 0.00 in0.0 mm
06:05 AM 32.1°F0.1°C 29.9°F-1.2°C 94% 0.2 mph SW0.3 kmh SW 2.6 mph4.2 kmh 29.56 in1001.0 mb 0.00 in0.0 mm 0.00 in0.0 mm 0.00 in0.0 mm
06:00 AM 32.1°F0.1°C 30.3°F-0.9°C 95% 0.4 mph SW0.6 kmh SW 2.6 mph4.2 kmh 29.56 in1001.0 mb 0.00 in0.0 mm 0.00 in0.0 mm 0.00 in0.0 mm
05:55 AM 32.1°F0.1°C 30.3°F-0.9°C 95% 0.7 mph SW1.1 kmh SW 3.5 mph5.6 kmh 29.56 in1001.0 mb 0.00 in0.0 mm 0.00 in0.0 mm 0.00 in0.0 mm
05:50 AM 32.1°F0.1°C 30.3°F-0.9°C 95% 1.1 mph SW1.8 kmh SW 4.4 mph7.1 kmh 29.56 in1001.0 mb 0.00 in0.0 mm 0.00 in0.0 mm 0.00 in0.0 mm
05:45 AM 32.0°F0.0°C 30.2°F-1.0°C 95% 1.4 mph SW2.3 kmh SW 5.4 mph8.7 kmh 29.56 in1001.0 mb 0.00 in0.0 mm 0.00 in0.0 mm 0.00 in0.0 mm
05:40 AM 32.0°F0.0°C 30.2°F-1.0°C 95% 1.0 mph SW1.6 kmh SW 3.5 mph5.6 kmh 29.56 in1001.0 mb 0.00 in0.0 mm 0.00 in0.0 mm 0.00 in0.0 mm
05:35 AM 32.0°F0.0°C 30.2°F-1.0°C 95% 0.2 mph SW0.3 kmh SW 3.5 mph5.6 kmh 29.56 in1001.0 mb 0.00 in0.0 mm 0.00 in0.0 mm 0.00 in0.0 mm
05:30 AM 32.0°F0.0°C 30.2°F-1.0°C 95% 0.3 mph SW0.5 kmh SW 2.2 mph3.5 kmh 29.56 in1001.0 mb 0.00 in0.0 mm 0.00 in0.0 mm 0.00 in0.0 mm
05:25 AM 31.8°F-0.1°C 30.0°F-1.1°C 95% 0.2 mph SW0.3 kmh SW 2.6 mph4.2 kmh 29.55 in1000.7 mb 0.00 in0.0 mm 0.00 in0.0 mm 0.00 in0.0 mm
05:20 AM 31.8°F-0.1°C 30.4°F-0.9°C 96% 0.3 mph SW0.5 kmh SW 3.0 mph4.8 kmh 29.55 in1000.7 mb 0.00 in0.0 mm 0.00 in0.0 mm 0.00 in0.0 mm
05:15 AM 31.8°F-0.1°C 30.4°F-0.9°C 96% 0.1 mph SW0.2 kmh SW 1.6 mph2.6 kmh 29.55 in1000.7 mb 0.00 in0.0 mm 0.00 in0.0 mm 0.00 in0.0 mm
05:10 AM 31.8°F-0.1°C 30.4°F-0.9°C 96% 0.3 mph SW0.5 kmh SW 4.2 mph6.8 kmh 29.55 in1000.7 mb 0.00 in0.0 mm 0.00 in0.0 mm 0.00 in0.0 mm
05:05 AM 31.8°F-0.1°C 30.4°F-0.9°C 96% 0.2 mph SW0.3 kmh SW 2.1 mph3.4 kmh 29.55 in1000.7 mb 0.00 in0.0 mm 0.00 in0.0 mm 0.00 in0.0 mm
05:00 AM 31.8°F-0.1°C 30.4°F-0.9°C 96% 0.3 mph SW0.5 kmh SW 3.5 mph5.6 kmh 29.55 in1000.7 mb 0.00 in0.0 mm 0.00 in0.0 mm 0.00 in0.0 mm
04:55 AM 31.8°F-0.1°C 30.4°F-0.9°C 96% 0.4 mph SW0.6 kmh SW 3.5 mph5.6 kmh 29.55 in1000.7 mb 0.00 in0.0 mm 0.00 in0.0 mm 0.00 in0.0 mm
04:50 AM 31.8°F-0.1°C 30.4°F-0.9°C 96% 0.7 mph SW1.1 kmh SW 2.6 mph4.2 kmh 29.55 in1000.7 mb 0.00 in0.0 mm 0.00 in0.0 mm 0.00 in0.0 mm
04:45 AM 31.8°F-0.1°C 30.4°F-0.9°C 96% 0.1 mph SW0.2 kmh SW 1.1 mph1.8 kmh 29.55 in1000.7 mb 0.00 in0.0 mm 0.00 in0.0 mm 0.00 in0.0 mm
04:40 AM 31.8°F-0.1°C 30.7°F-0.7°C 97% 0.3 mph SW0.5 kmh SW 2.1 mph3.4 kmh 29.54 in1000.3 mb 0.00 in0.0 mm 0.00 in0.0 mm 0.00 in0.0 mm
04:35 AM 31.8°F-0.1°C 30.7°F-0.7°C 97% 0.3 mph SW0.5 kmh SW 2.7 mph4.3 kmh 29.54 in1000.3 mb 0.00 in0.0 mm 0.00 in0.0 mm 0.00 in0.0 mm
04:30 AM 31.8°F-0.1°C 31.1°F-0.5°C 98% 0.3 mph SW0.5 kmh SW 2.1 mph3.4 kmh 29.55 in1000.7 mb 0.00 in0.0 mm 0.00 in0.0 mm 0.00 in0.0 mm
04:25 AM 31.8°F-0.1°C 31.1°F-0.5°C 98% 0.5 mph SW0.8 kmh SW 3.0 mph4.8 kmh 29.54 in1000.3 mb 0.00 in0.0 mm 0.00 in0.0 mm 0.00 in0.0 mm
04:20 AM 31.8°F-0.1°C 31.4°F-0.3°C 99% 0.1 mph SW0.2 kmh SW 1.3 mph2.1 kmh 29.54 in1000.3 mb 0.00 in0.0 mm 0.00 in0.0 mm 0.00 in0.0 mm
04:15 AM 31.6°F-0.2°C 31.2°F-0.4°C 99% 1.8 mph SW2.9 kmh SW 4.7 mph7.6 kmh 29.54 in1000.3 mb 0.00 in0.0 mm 0.00 in0.0 mm 0.00 in0.0 mm
04:10 AM 31.3°F-0.4°C 31.0°F-0.6°C 99% 1.0 mph SW1.6 kmh SW 6.5 mph10.5 kmh 29.55 in1000.7 mb 0.00 in0.0 mm 0.00 in0.0 mm 0.00 in0.0 mm
04:05 AM 31.1°F-0.5°C 30.7°F-0.7°C 99% 0.5 mph SW0.8 kmh SW 3.7 mph6.0 kmh 29.55 in1000.7 mb 0.00 in0.0 mm 0.00 in0.0 mm 0.00 in0.0 mm
04:00 AM 30.8°F-0.7°C 30.5°F-0.8°C 99% 2.3 mph SW3.7 kmh SW 4.0 mph6.4 kmh 29.55 in1000.7 mb 0.00 in0.0 mm 0.00 in0.0 mm 0.00 in0.0 mm
03:55 AM 30.7°F-0.7°C 30.3°F-0.9°C 99% 1.7 mph SW2.7 kmh SW 4.4 mph7.1 kmh 29.55 in1000.7 mb 0.00 in0.0 mm 0.00 in0.0 mm 0.00 in0.0 mm
03:50 AM 30.5°F-0.8°C 30.1°F-1.1°C 99% 2.0 mph SW3.2 kmh SW 4.4 mph7.1 kmh 29.55 in1000.7 mb 0.00 in0.0 mm 0.00 in0.0 mm 0.00 in0.0 mm
03:45 AM 30.3°F-0.9°C 29.9°F-1.2°C 99% 2.8 mph SW4.5 kmh SW 4.9 mph7.9 kmh 29.55 in1000.7 mb 0.00 in0.0 mm 0.00 in0.0 mm 0.00 in0.0 mm
03:40 AM 30.3°F-0.9°C 29.9°F-1.2°C 99% 1.8 mph SW2.9 kmh SW 3.0 mph4.8 kmh 29.55 in1000.7 mb 0.00 in0.0 mm 0.00 in0.0 mm 0.00 in0.0 mm
03:35 AM 29.9°F-1.2°C 29.5°F-1.4°C 99% 1.8 mph SW2.9 kmh SW 3.0 mph4.8 kmh 29.55 in1000.7 mb 0.00 in0.0 mm 0.00 in0.0 mm 0.00 in0.0 mm
03:30 AM 29.4°F-1.4°C 29.0°F-1.7°C 99% 1.5 mph SW2.4 kmh SW 2.7 mph4.3 kmh 29.55 in1000.7 mb 0.00 in0.0 mm 0.00 in0.0 mm 0.00 in0.0 mm
03:25 AM 29.2°F-1.6°C 28.5°F-1.9°C 98% 0.5 mph SW0.8 kmh SW 1.8 mph2.9 kmh 29.55 in1000.7 mb 0.00 in0.0 mm 0.00 in0.0 mm 0.00 in0.0 mm
03:20 AM 29.2°F-1.6°C 28.5°F-1.9°C 98% Calm Calm -- 29.55 in1000.7 mb 0.00 in0.0 mm 0.00 in0.0 mm 0.00 in0.0 mm
03:15 AM 29.3°F-1.5°C 28.6°F-1.9°C 98% Calm Calm -- 29.55 in1000.7 mb 0.00 in0.0 mm 0.00 in0.0 mm 0.00 in0.0 mm
03:10 AM 29.7°F-1.3°C 28.9°F-1.7°C 98% Calm Calm -- 29.55 in1000.7 mb 0.00 in0.0 mm 0.00 in0.0 mm 0.00 in0.0 mm
03:05 AM 30.2°F-1.0°C 29.4°F-1.4°C 98% Calm Calm -- 29.56 in1001.0 mb 0.00 in0.0 mm 0.00 in0.0 mm 0.00 in0.0 mm
03:00 AM 30.8°F-0.7°C 30.1°F-1.1°C 98% Calm Calm -- 29.56 in1001.0 mb 0.00 in0.0 mm 0.00 in0.0 mm 0.00 in0.0 mm
02:55 AM 31.3°F-0.4°C 30.6°F-0.8°C 98% Calm Calm -- 29.56 in1001.0 mb 0.00 in0.0 mm 0.00 in0.0 mm 0.00 in0.0 mm
02:50 AM 31.6°F-0.2°C 31.2°F-0.4°C 99% 0.1 mph SW0.2 kmh SW 1.3 mph2.1 kmh 29.56 in1001.0 mb 0.00 in0.0 mm 0.00 in0.0 mm 0.00 in0.0 mm
02:45 AM 31.8°F-0.1°C 31.4°F-0.3°C 99% 0.4 mph SW0.6 kmh SW 1.6 mph2.6 kmh 29.56 in1001.0 mb 0.00 in0.0 mm 0.00 in0.0 mm 0.00 in0.0 mm
02:40 AM 31.8°F-0.1°C 31.4°F-0.3°C 99% 0.6 mph SW1.0 kmh SW 1.8 mph2.9 kmh 29.57 in1001.4 mb 0.00 in0.0 mm 0.00 in0.0 mm 0.00 in0.0 mm
02:35 AM 31.8°F-0.1°C 31.4°F-0.3°C 99% 1.3 mph SW2.1 kmh SW 3.0 mph4.8 kmh 29.57 in1001.4 mb 0.00 in0.0 mm 0.00 in0.0 mm 0.00 in0.0 mm
02:30 AM 31.8°F-0.1°C 31.4°F-0.3°C 99% 0.6 mph SW1.0 kmh SW 1.8 mph2.9 kmh 29.57 in1001.4 mb 0.00 in0.0 mm 0.00 in0.0 mm 0.00 in0.0 mm
02:25 AM 32.0°F0.0°C 31.6°F-0.2°C 99% Calm Calm -- 29.57 in1001.4 mb 0.00 in0.0 mm 0.00 in0.0 mm 0.00 in0.0 mm
02:20 AM 32.0°F0.0°C 31.7°F-0.2°C 99% 0.2 mph SW0.3 kmh SW 1.8 mph2.9 kmh 29.57 in1001.4 mb 0.00 in0.0 mm 0.00 in0.0 mm 0.00 in0.0 mm
02:15 AM 32.1°F0.1°C 31.8°F-0.1°C 99% Calm Calm 1.1 mph1.8 kmh 29.57 in1001.4 mb 0.00 in0.0 mm 0.00 in0.0 mm 0.00 in0.0 mm
02:10 AM 32.2°F0.1°C 31.8°F-0.1°C 99% Calm Calm -- 29.57 in1001.4 mb 0.00 in0.0 mm 0.00 in0.0 mm 0.00 in0.0 mm
02:05 AM 32.2°F0.1°C 31.8°F-0.1°C 99% 0.9 mph SW1.4 kmh SW 3.2 mph5.1 kmh 29.57 in1001.4 mb 0.00 in0.0 mm 0.00 in0.0 mm 0.00 in0.0 mm
02:00 AM 32.2°F0.1°C 31.8°F-0.1°C 99% 1.2 mph SW1.9 kmh SW 2.2 mph3.5 kmh 29.58 in1001.7 mb 0.00 in0.0 mm 0.00 in0.0 mm 0.00 in0.0 mm
01:55 AM 32.2°F0.1°C 31.5°F-0.3°C 98% 0.6 mph SW1.0 kmh SW 1.6 mph2.6 kmh 29.58 in1001.7 mb 0.00 in0.0 mm 0.00 in0.0 mm 0.00 in0.0 mm
01:50 AM 32.1°F0.1°C 31.3°F-0.4°C 98% 0.3 mph SW0.5 kmh SW 1.6 mph2.6 kmh 29.58 in1001.7 mb 0.00 in0.0 mm 0.00 in0.0 mm 0.00 in0.0 mm
01:45 AM 32.0°F0.0°C 31.3°F-0.4°C 98% Calm Calm -- 29.58 in1001.7 mb 0.00 in0.0 mm 0.00 in0.0 mm 0.00 in0.0 mm
01:40 AM 32.0°F0.0°C 31.3°F-0.4°C 98% Calm Calm -- 29.58 in1001.7 mb 0.00 in0.0 mm 0.00 in0.0 mm 0.00 in0.0 mm
01:35 AM 32.1°F0.1°C 31.4°F-0.3°C 98% Calm Calm -- 29.58 in1001.7 mb 0.00 in0.0 mm 0.00 in0.0 mm 0.00 in0.0 mm
01:30 AM 32.3°F0.2°C 31.5°F-0.3°C 98% Calm Calm -- 29.58 in1001.7 mb 0.00 in0.0 mm 0.00 in0.0 mm 0.00 in0.0 mm
01:25 AM 32.3°F0.2°C 31.6°F-0.2°C 98% Calm Calm -- 29.59 in1002.0 mb 0.00 in0.0 mm 0.00 in0.0 mm 0.00 in0.0 mm
01:20 AM 32.4°F0.2°C 31.7°F-0.2°C 98% Calm Calm -- 29.58 in1001.7 mb 0.00 in0.0 mm 0.00 in0.0 mm 0.00 in0.0 mm
01:15 AM 32.7°F0.4°C 31.9°F-0.1°C 98% 0.1 mph SW0.2 kmh SW 1.3 mph2.1 kmh 29.59 in1002.0 mb 0.00 in0.0 mm 0.00 in0.0 mm 0.00 in0.0 mm
01:10 AM 32.8°F0.4°C 32.0°F0.0°C 98% 0.2 mph SW0.3 kmh SW 1.6 mph2.6 kmh 29.59 in1002.0 mb 0.00 in0.0 mm 0.00 in0.0 mm 0.00 in0.0 mm
01:05 AM 32.8°F0.4°C 32.1°F0.1°C 98% 0.0 mph SW0.0 kmh SW 1.1 mph1.8 kmh 29.59 in1002.0 mb 0.00 in0.0 mm 0.00 in0.0 mm 0.00 in0.0 mm
01:00 AM 32.8°F0.4°C 32.1°F0.1°C 98% 0.2 mph SW0.3 kmh SW 1.8 mph2.9 kmh 29.59 in1002.0 mb 0.00 in0.0 mm 0.00 in0.0 mm 0.00 in0.0 mm
12:55 AM 32.7°F0.4°C 32.0°F0.0°C 98% 1.5 mph SW2.4 kmh SW 3.5 mph5.6 kmh 29.59 in1002.0 mb 0.00 in0.0 mm 0.00 in0.0 mm 0.00 in0.0 mm
12:50 AM 32.8°F0.4°C 32.1°F0.1°C 98% 0.7 mph SSW1.1 kmh SSW 2.2 mph3.5 kmh 29.59 in1002.0 mb 0.00 in0.0 mm 0.00 in0.0 mm 0.00 in0.0 mm
12:45 AM 32.8°F0.4°C 32.1°F0.1°C 98% 0.8 mph SSW1.3 kmh SSW 2.7 mph4.3 kmh 29.59 in1002.0 mb 0.00 in0.0 mm 0.00 in0.0 mm 0.00 in0.0 mm
12:40 AM 32.8°F0.4°C 32.1°F0.1°C 98% 1.6 mph SSW2.6 kmh SSW 3.0 mph4.8 kmh 29.59 in1002.0 mb 0.00 in0.0 mm 0.00 in0.0 mm 0.00 in0.0 mm
12:35 AM 32.8°F0.4°C 32.1°F0.1°C 98% 2.5 mph SSW4.0 kmh SSW 4.2 mph6.8 kmh 29.59 in1002.0 mb 0.00 in0.0 mm 0.00 in0.0 mm 0.00 in0.0 mm
12:30 AM 33.0°F0.6°C 32.3°F0.2°C 98% 2.2 mph SSW3.5 kmh SSW 3.7 mph6.0 kmh 29.59 in1002.0 mb 0.00 in0.0 mm 0.00 in0.0 mm 0.00 in0.0 mm
12:25 AM 33.0°F0.6°C 32.3°F0.2°C 98% 2.3 mph SSW3.7 kmh SSW 2.7 mph4.3 kmh 29.60 in1002.4 mb 0.00 in0.0 mm 0.00 in0.0 mm 0.00 in0.0 mm
12:20 AM 33.1°F0.6°C 32.4°F0.2°C 98% 2.5 mph SSW4.0 kmh SSW 4.0 mph6.4 kmh 29.60 in1002.4 mb 0.00 in0.0 mm 0.00 in0.0 mm 0.00 in0.0 mm
12:15 AM 33.2°F0.7°C 32.5°F0.3°C 98% 2.1 mph SSW3.4 kmh SSW 2.7 mph4.3 kmh 29.60 in1002.4 mb 0.00 in0.0 mm 0.00 in0.0 mm 0.00 in0.0 mm
12:10 AM 33.5°F0.8°C 32.8°F0.4°C 98% 0.8 mph SSW1.3 kmh SSW 2.6 mph4.2 kmh 29.61 in1002.7 mb 0.00 in0.0 mm 0.00 in0.0 mm 0.00 in0.0 mm
12:05 AM 33.6°F0.9°C 32.9°F0.5°C 98% Calm Calm -- 29.61 in1002.7 mb 0.00 in0.0 mm 0.00 in0.0 mm 0.00 in0.0 mm
12:00 AM 33.6°F0.9°C 32.9°F0.5°C 98% 0.3 mph SSW0.5 kmh SSW 1.6 mph2.6 kmh 29.61 in1002.7 mb 0.00 in0.0 mm 0.00 in0.0 mm 0.10 in2.5 mm
WeatherForYou.com, LLC is not responsible for any damages or problems caused by this service. Current weather conditions are obtained from the closest station including government and personal stations which may have varying degrees of accuracy. Weather forecasts are derived from the NOAA NDFD and obtained through HAMweather's Aeris Weather API. Like all things, this site belongs to Jesus Christ... He just trusts me to maintain it. If you have any questions or comments email webmaster@weatherforyou.com

Copyright © 2015, WeatherForYou.com LLC. All rights reserved.